sensor_id;sensor_type;location;lat;lon;timestamp;pressure;altitude;pressure_sealevel;temperature;humidity
28606;BME280;46498;49.968;7.754;2023-11-21T00:04:21;-18508.00;;;7.24;100.00
28606;BME280;46498;49.968;7.754;2023-11-21T00:09:22;-18514.00;;;7.42;100.00
28606;BME280;46498;49.968;7.754;2023-11-21T00:14:23;-18513.00;;;7.37;100.00
28606;BME280;46498;49.968;7.754;2023-11-21T00:19:24;-18514.00;;;7.42;100.00
28606;BME280;46498;49.968;7.754;2023-11-21T00:24:25;-18516.00;;;7.48;100.00
28606;BME280;46498;49.968;7.754;2023-11-21T00:29:26;-18519.00;;;7.57;100.00
28606;BME280;46498;49.968;7.754;2023-11-21T00:34:27;-18518.00;;;7.53;100.00
28606;BME280;46498;49.968;7.754;2023-11-21T00:39:28;-18513.00;;;7.39;100.00
28606;BME280;46498;49.968;7.754;2023-11-21T00:44:29;-18514.00;;;7.41;100.00
28606;BME280;46498;49.968;7.754;2023-11-21T00:49:30;-18512.00;;;7.34;100.00
28606;BME280;46498;49.968;7.754;2023-11-21T00:54:31;-18514.00;;;7.41;100.00
28606;BME280;46498;49.968;7.754;2023-11-21T00:59:35;-18513.00;;;7.40;100.00
28606;BME280;46498;49.968;7.754;2023-11-21T01:04:36;-18514.00;;;7.42;100.00
28606;BME280;46498;49.968;7.754;2023-11-21T01:09:37;-18515.00;;;7.44;100.00
28606;BME280;46498;49.968;7.754;2023-11-21T01:14:38;-18517.00;;;7.50;100.00
28606;BME280;46498;49.968;7.754;2023-11-21T01:19:39;-18517.00;;;7.52;100.00
28606;BME280;46498;49.968;7.754;2023-11-21T01:24:40;-18518.00;;;7.55;100.00
28606;BME280;46498;49.968;7.754;2023-11-21T01:29:40;-18519.00;;;7.59;100.00
28606;BME280;46498;49.968;7.754;2023-11-21T01:34:41;-18520.00;;;7.60;100.00
28606;BME280;46498;49.968;7.754;2023-11-21T01:39:43;-18519.00;;;7.58;100.00
28606;BME280;46498;49.968;7.754;2023-11-21T01:44:44;-18514.00;;;7.41;100.00
28606;BME280;46498;49.968;7.754;2023-11-21T01:49:47;-18517.00;;;7.50;100.00
28606;BME280;46498;49.968;7.754;2023-11-21T01:54:48;-18519.00;;;7.57;100.00
28606;BME280;46498;49.968;7.754;2023-11-21T01:59:50;-18515.00;;;7.45;100.00
28606;BME280;46498;49.968;7.754;2023-11-21T02:04:53;-18519.00;;;7.56;100.00
28606;BME280;46498;49.968;7.754;2023-11-21T02:09:54;-18513.00;;;7.39;100.00
28606;BME280;46498;49.968;7.754;2023-11-21T02:14:55;-18509.00;;;7.26;100.00
28606;BME280;46498;49.968;7.754;2023-11-21T02:19:56;-18507.00;;;7.19;100.00
28606;BME280;46498;49.968;7.754;2023-11-21T02:24:57;-18508.00;;;7.22;100.00
28606;BME280;46498;49.968;7.754;2023-11-21T02:29:58;-18509.00;;;7.25;100.00
28606;BME280;46498;49.968;7.754;2023-11-21T02:34:59;-18507.00;;;7.21;100.00
28606;BME280;46498;49.968;7.754;2023-11-21T02:40:04;-18507.00;;;7.21;100.00
28606;BME280;46498;49.968;7.754;2023-11-21T02:45:08;-18505.00;;;7.13;100.00
28606;BME280;46498;49.968;7.754;2023-11-21T02:50:10;-18504.00;;;7.12;100.00
28606;BME280;46498;49.968;7.754;2023-11-21T02:55:10;-18504.00;;;7.11;100.00
28606;BME280;46498;49.968;7.754;2023-11-21T03:00:12;-18502.00;;;7.03;100.00
28606;BME280;46498;49.968;7.754;2023-11-21T03:05:15;-18503.00;;;7.09;100.00
28606;BME280;46498;49.968;7.754;2023-11-21T03:10:16;-18502.00;;;7.03;100.00
28606;BME280;46498;49.968;7.754;2023-11-21T03:15:17;-18498.00;;;6.91;100.00
28606;BME280;46498;49.968;7.754;2023-11-21T03:20:18;-18496.00;;;6.85;100.00
28606;BME280;46498;49.968;7.754;2023-11-21T03:25:19;-18499.00;;;6.95;100.00
28606;BME280;46498;49.968;7.754;2023-11-21T03:30:20;-18501.00;;;7.01;100.00
28606;BME280;46498;49.968;7.754;2023-11-21T03:35:22;-18501.00;;;7.01;100.00
28606;BME280;46498;49.968;7.754;2023-11-21T03:40:23;-18502.00;;;7.05;100.00
28606;BME280;46498;49.968;7.754;2023-11-21T03:45:23;-18503.00;;;7.06;100.00
28606;BME280;46498;49.968;7.754;2023-11-21T03:50:25;-18502.00;;;7.04;100.00
28606;BME280;46498;49.968;7.754;2023-11-21T03:55:25;-18499.00;;;6.95;100.00
28606;BME280;46498;49.968;7.754;2023-11-21T04:00:27;-18501.00;;;7.02;100.00
28606;BME280;46498;49.968;7.754;2023-11-21T04:05:28;-18501.00;;;6.99;100.00
28606;BME280;46498;49.968;7.754;2023-11-21T04:10:29;-18501.00;;;7.00;100.00
28606;BME280;46498;49.968;7.754;2023-11-21T04:15:30;-18502.00;;;7.03;100.00
28606;BME280;46498;49.968;7.754;2023-11-21T04:20:31;-18498.00;;;6.92;100.00
28606;BME280;46498;49.968;7.754;2023-11-21T04:25:32;-18499.00;;;6.93;100.00
28606;BME280;46498;49.968;7.754;2023-11-21T04:30:32;-18500.00;;;6.97;100.00
28606;BME280;46498;49.968;7.754;2023-11-21T04:35:33;-18496.00;;;6.85;100.00
28606;BME280;46498;49.968;7.754;2023-11-21T04:40:35;-18494.00;;;6.80;100.00
28606;BME280;46498;49.968;7.754;2023-11-21T04:45:36;-18493.00;;;6.74;100.00
28606;BME280;46498;49.968;7.754;2023-11-21T04:50:37;-18493.00;;;6.75;100.00
28606;BME280;46498;49.968;7.754;2023-11-21T04:55:38;-18494.00;;;6.79;100.00
28606;BME280;46498;49.968;7.754;2023-11-21T05:00:39;-18495.00;;;6.83;100.00
28606;BME280;46498;49.968;7.754;2023-11-21T05:05:40;-18493.00;;;6.77;100.00
28606;BME280;46498;49.968;7.754;2023-11-21T05:10:41;-18491.00;;;6.69;100.00
28606;BME280;46498;49.968;7.754;2023-11-21T05:15:42;-18494.00;;;6.80;100.00
28606;BME280;46498;49.968;7.754;2023-11-21T05:20:43;-18494.00;;;6.78;100.00
28606;BME280;46498;49.968;7.754;2023-11-21T05:25:44;-18492.00;;;6.72;100.00
28606;BME280;46498;49.968;7.754;2023-11-21T05:30:46;-18490.00;;;6.67;100.00
28606;BME280;46498;49.968;7.754;2023-11-21T05:35:47;-18487.00;;;6.58;100.00
28606;BME280;46498;49.968;7.754;2023-11-21T05:40:51;-18490.00;;;6.66;100.00
28606;BME280;46498;49.968;7.754;2023-11-21T05:45:52;-18490.00;;;6.67;100.00
28606;BME280;46498;49.968;7.754;2023-11-21T05:50:53;-18490.00;;;6.66;100.00
28606;BME280;46498;49.968;7.754;2023-11-21T05:55:54;-18490.00;;;6.68;100.00
28606;BME280;46498;49.968;7.754;2023-11-21T06:00:55;-18490.00;;;6.67;100.00
28606;BME280;46498;49.968;7.754;2023-11-21T06:05:56;-18490.00;;;6.65;100.00
28606;BME280;46498;49.968;7.754;2023-11-21T06:10:57;-18490.00;;;6.67;100.00
28606;BME280;46498;49.968;7.754;2023-11-21T06:15:57;-18491.00;;;6.69;100.00
28606;BME280;46498;49.968;7.754;2023-11-21T06:20:59;-18490.00;;;6.66;100.00
28606;BME280;46498;49.968;7.754;2023-11-21T06:26:01;-18491.00;;;6.71;100.00
28606;BME280;46498;49.968;7.754;2023-11-21T06:31:02;-18491.00;;;6.70;100.00
28606;BME280;46498;49.968;7.754;2023-11-21T06:36:06;-18490.00;;;6.66;100.00
28606;BME280;46498;49.968;7.754;2023-11-21T06:41:07;-18487.00;;;6.57;100.00
28606;BME280;46498;49.968;7.754;2023-11-21T06:46:10;-18488.00;;;6.61;100.00
28606;BME280;46498;49.968;7.754;2023-11-21T06:51:12;-18490.00;;;6.65;100.00
28606;BME280;46498;49.968;7.754;2023-11-21T06:56:19;-18488.00;;;6.60;100.00
28606;BME280;46498;49.968;7.754;2023-11-21T07:01:20;-18487.00;;;6.58;100.00
28606;BME280;46498;49.968;7.754;2023-11-21T07:06:22;-18491.00;;;6.69;100.00
28606;BME280;46498;49.968;7.754;2023-11-21T07:11:22;-18487.00;;;6.57;100.00
28606;BME280;46498;49.968;7.754;2023-11-21T07:16:23;-18489.00;;;6.62;100.00
28606;BME280;46498;49.968;7.754;2023-11-21T07:21:24;-18487.00;;;6.58;100.00
28606;BME280;46498;49.968;7.754;2023-11-21T07:26:25;-18488.00;;;6.59;100.00
28606;BME280;46498;49.968;7.754;2023-11-21T07:31:27;-18495.00;;;6.83;100.00
28606;BME280;46498;49.968;7.754;2023-11-21T07:36:28;-18488.00;;;6.60;100.00
28606;BME280;46498;49.968;7.754;2023-11-21T07:41:29;-18488.00;;;6.59;100.00
28606;BME280;46498;49.968;7.754;2023-11-21T07:46:32;-18489.00;;;6.62;100.00
28606;BME280;46498;49.968;7.754;2023-11-21T07:51:33;-18491.00;;;6.71;100.00
28606;BME280;46498;49.968;7.754;2023-11-21T07:56:34;-18494.00;;;6.78;100.00
28606;BME280;46498;49.968;7.754;2023-11-21T08:01:35;-18492.00;;;6.72;100.00
28606;BME280;46498;49.968;7.754;2023-11-21T08:06:35;-18492.00;;;6.72;100.00
28606;BME280;46498;49.968;7.754;2023-11-21T08:11:36;-18495.00;;;6.81;100.00
28606;BME280;46498;49.968;7.754;2023-11-21T08:16:39;-18496.00;;;6.85;100.00
28606;BME280;46498;49.968;7.754;2023-11-21T08:21:40;-18498.00;;;6.92;100.00
28606;BME280;46498;49.968;7.754;2023-11-21T08:26:41;-18495.00;;;6.82;100.00
28606;BME280;46498;49.968;7.754;2023-11-21T08:31:42;-18493.00;;;6.75;100.00
28606;BME280;46498;49.968;7.754;2023-11-21T08:36:43;-18496.00;;;6.84;100.00
28606;BME280;46498;49.968;7.754;2023-11-21T08:41:44;-18496.00;;;6.86;100.00
28606;BME280;46498;49.968;7.754;2023-11-21T08:46:46;-18497.00;;;6.90;100.00
28606;BME280;46498;49.968;7.754;2023-11-21T08:51:47;-18502.00;;;7.04;100.00
28606;BME280;46498;49.968;7.754;2023-11-21T08:56:48;-18503.00;;;7.06;100.00
28606;BME280;46498;49.968;7.754;2023-11-21T09:01:50;-18502.00;;;7.04;100.00
28606;BME280;46498;49.968;7.754;2023-11-21T09:06:51;-18500.00;;;6.99;100.00
28606;BME280;46498;49.968;7.754;2023-11-21T09:11:52;-18498.00;;;6.90;100.00
28606;BME280;46498;49.968;7.754;2023-11-21T09:16:53;-18498.00;;;6.90;100.00
28606;BME280;46498;49.968;7.754;2023-11-21T09:21:54;-18504.00;;;7.10;100.00
28606;BME280;46498;49.968;7.754;2023-11-21T09:26:55;-18500.00;;;6.97;100.00
28606;BME280;46498;49.968;7.754;2023-11-21T09:31:56;-18502.00;;;7.05;100.00
28606;BME280;46498;49.968;7.754;2023-11-21T09:37:00;-18508.00;;;7.23;100.00
28606;BME280;46498;49.968;7.754;2023-11-21T09:42:12;-18512.00;;;7.36;100.00
28606;BME280;46498;49.968;7.754;2023-11-21T09:47:16;-18510.00;;;7.30;100.00
28606;BME280;46498;49.968;7.754;2023-11-21T09:52:22;-18509.00;;;7.27;100.00
28606;BME280;46498;49.968;7.754;2023-11-21T09:57:26;-18513.00;;;7.40;100.00
28606;BME280;46498;49.968;7.754;2023-11-21T10:02:28;-18516.00;;;7.48;100.00
28606;BME280;46498;49.968;7.754;2023-11-21T10:07:31;-18519.00;;;7.56;100.00
28606;BME280;46498;49.968;7.754;2023-11-21T10:12:33;-18521.00;;;7.65;100.00
28606;BME280;46498;49.968;7.754;2023-11-21T10:17:36;-18524.00;;;7.73;100.00
28606;BME280;46498;49.968;7.754;2023-11-21T10:22:43;-18528.00;;;7.86;100.00
28606;BME280;46498;49.968;7.754;2023-11-21T10:27:47;-18525.00;;;7.78;100.00
28606;BME280;46498;49.968;7.754;2023-11-21T10:32:48;-18527.00;;;7.83;100.00
28606;BME280;46498;49.968;7.754;2023-11-21T10:38:00;-18532.00;;;7.98;100.00
28606;BME280;46498;49.968;7.754;2023-11-21T10:43:08;-18532.00;;;8.00;100.00
28606;BME280;46498;49.968;7.754;2023-11-21T10:48:12;-18537.00;;;8.13;100.00
28606;BME280;46498;49.968;7.754;2023-11-21T10:53:16;-18542.00;;;8.28;100.00
28606;BME280;46498;49.968;7.754;2023-11-21T10:58:17;-18547.00;;;8.46;100.00
28606;BME280;46498;49.968;7.754;2023-11-21T11:03:18;-18550.00;;;8.54;100.00
28606;BME280;46498;49.968;7.754;2023-11-21T11:08:21;-18550.00;;;8.55;100.00
28606;BME280;46498;49.968;7.754;2023-11-21T11:13:27;-18553.00;;;8.64;100.00
28606;BME280;46498;49.968;7.754;2023-11-21T11:18:29;-18557.00;;;8.77;100.00
28606;BME280;46498;49.968;7.754;2023-11-21T11:25:12;-18560.00;;;8.87;100.00
28606;BME280;46498;49.968;7.754;2023-11-21T11:38:45;-18555.00;;;8.72;100.00
28606;BME280;46498;49.968;7.754;2023-11-21T11:43:47;-18554.00;;;8.66;100.00
28606;BME280;46498;49.968;7.754;2023-11-21T11:49:02;-18557.00;;;8.75;100.00
28606;BME280;46498;49.968;7.754;2023-11-21T11:54:05;-18558.00;;;8.80;100.00
28606;BME280;46498;49.968;7.754;2023-11-21T11:59:07;-18557.00;;;8.77;100.00
28606;BME280;46498;49.968;7.754;2023-11-21T12:04:28;-18563.00;;;8.96;100.00
28606;BME280;46498;49.968;7.754;2023-11-21T12:09:37;-18566.00;;;9.05;100.00
28606;BME280;46498;49.968;7.754;2023-11-21T12:14:38;-18573.00;;;9.26;100.00
28606;BME280;46498;49.968;7.754;2023-11-21T12:19:39;-18580.00;;;9.47;100.00
28606;BME280;46498;49.968;7.754;2023-11-21T12:24:39;-18582.00;;;9.55;100.00
28606;BME280;46498;49.968;7.754;2023-11-21T12:29:40;-18582.00;;;9.55;100.00
28606;BME280;46498;49.968;7.754;2023-11-21T12:34:41;-18577.00;;;9.39;100.00
28606;BME280;46498;49.968;7.754;2023-11-21T12:39:42;-18578.00;;;9.43;100.00
28606;BME280;46498;49.968;7.754;2023-11-21T12:44:45;-18570.00;;;9.18;100.00
28606;BME280;46498;49.968;7.754;2023-11-21T12:49:48;-18574.00;;;9.31;100.00
28606;BME280;46498;49.968;7.754;2023-11-21T12:54:49;-18572.00;;;9.25;100.00
28606;BME280;46498;49.968;7.754;2023-11-21T12:59:50;-18564.00;;;8.98;100.00
28606;BME280;46498;49.968;7.754;2023-11-21T13:04:53;-18563.00;;;8.94;100.00
28606;BME280;46498;49.968;7.754;2023-11-21T13:09:55;-18556.00;;;8.73;100.00
28606;BME280;46498;49.968;7.754;2023-11-21T13:14:56;-18549.00;;;8.51;100.00
28606;BME280;46498;49.968;7.754;2023-11-21T13:19:56;-18543.00;;;8.34;100.00
28606;BME280;46498;49.968;7.754;2023-11-21T13:24:58;-18545.00;;;8.40;100.00
28606;BME280;46498;49.968;7.754;2023-11-21T13:30:00;-18547.00;;;8.46;100.00
28606;BME280;46498;49.968;7.754;2023-11-21T13:35:01;-18546.00;;;8.43;100.00
28606;BME280;46498;49.968;7.754;2023-11-21T13:40:02;-18546.00;;;8.41;100.00
28606;BME280;46498;49.968;7.754;2023-11-21T13:45:11;-18541.00;;;8.25;100.00
28606;BME280;46498;49.968;7.754;2023-11-21T13:50:13;-18542.00;;;8.29;100.00
28606;BME280;46498;49.968;7.754;2023-11-21T13:55:20;-18533.00;;;8.02;100.00
28606;BME280;46498;49.968;7.754;2023-11-21T14:00:22;-18531.00;;;7.96;100.00
28606;BME280;46498;49.968;7.754;2023-11-21T14:05:41;-18531.00;;;7.96;100.00
28606;BME280;46498;49.968;7.754;2023-11-21T14:10:43;-18531.00;;;7.94;100.00
28606;BME280;46498;49.968;7.754;2023-11-21T14:15:45;-18530.00;;;7.92;100.00
28606;BME280;46498;49.968;7.754;2023-11-21T14:20:47;-18529.00;;;7.89;100.00
28606;BME280;46498;49.968;7.754;2023-11-21T14:25:48;-18527.00;;;7.84;100.00
28606;BME280;46498;49.968;7.754;2023-11-21T14:30:51;-18525.00;;;7.78;100.00
28606;BME280;46498;49.968;7.754;2023-11-21T14:35:52;-18525.00;;;7.75;100.00
28606;BME280;46498;49.968;7.754;2023-11-21T14:40:53;-18524.00;;;7.74;100.00
28606;BME280;46498;49.968;7.754;2023-11-21T14:45:54;-18523.00;;;7.70;100.00
28606;BME280;46498;49.968;7.754;2023-11-21T14:50:57;-18523.00;;;7.70;100.00
28606;BME280;46498;49.968;7.754;2023-11-21T14:56:32;-18524.00;;;7.73;100.00
28606;BME280;46498;49.968;7.754;2023-11-21T15:01:35;-18523.00;;;7.69;100.00
28606;BME280;46498;49.968;7.754;2023-11-21T15:06:57;-18522.00;;;7.65;100.00
28606;BME280;46498;49.968;7.754;2023-11-21T15:12:01;-18518.00;;;7.54;100.00
28606;BME280;46498;49.968;7.754;2023-11-21T15:17:17;-18514.00;;;7.41;100.00
28606;BME280;46498;49.968;7.754;2023-11-21T15:22:27;-18513.00;;;7.38;100.00
28606;BME280;46498;49.968;7.754;2023-11-21T15:27:29;-18510.00;;;7.29;100.00
28606;BME280;46498;49.968;7.754;2023-11-21T15:32:30;-18509.00;;;7.27;100.00
28606;BME280;46498;49.968;7.754;2023-11-21T15:37:30;-18514.00;;;7.41;100.00
28606;BME280;46498;49.968;7.754;2023-11-21T15:42:32;-18510.00;;;7.29;100.00
28606;BME280;46498;49.968;7.754;2023-11-21T15:47:33;-18510.00;;;7.29;100.00
28606;BME280;46498;49.968;7.754;2023-11-21T15:52:36;-18510.00;;;7.30;100.00
28606;BME280;46498;49.968;7.754;2023-11-21T15:57:56;-18509.00;;;7.25;100.00
28606;BME280;46498;49.968;7.754;2023-11-21T16:02:57;-18505.00;;;7.14;100.00
28606;BME280;46498;49.968;7.754;2023-11-21T16:07:58;-18502.00;;;7.05;100.00
28606;BME280;46498;49.968;7.754;2023-11-21T16:12:59;-18503.00;;;7.08;100.00
28606;BME280;46498;49.968;7.754;2023-11-21T16:18:01;-18504.00;;;7.11;100.00
28606;BME280;46498;49.968;7.754;2023-11-21T16:23:02;-18504.00;;;7.11;100.00
28606;BME280;46498;49.968;7.754;2023-11-21T16:28:03;-18504.00;;;7.11;100.00
28606;BME280;46498;49.968;7.754;2023-11-21T16:33:06;-18505.00;;;7.12;100.00
28606;BME280;46498;49.968;7.754;2023-11-21T16:38:08;-18507.00;;;7.20;100.00
28606;BME280;46498;49.968;7.754;2023-11-21T16:43:10;-18506.00;;;7.16;100.00
28606;BME280;46498;49.968;7.754;2023-11-21T16:48:11;-18507.00;;;7.21;100.00
28606;BME280;46498;49.968;7.754;2023-11-21T16:53:12;-18508.00;;;7.24;100.00
28606;BME280;46498;49.968;7.754;2023-11-21T16:58:13;-18511.00;;;7.33;100.00
28606;BME280;46498;49.968;7.754;2023-11-21T17:03:13;-18510.00;;;7.28;100.00
28606;BME280;46498;49.968;7.754;2023-11-21T17:08:14;-18512.00;;;7.36;100.00
28606;BME280;46498;49.968;7.754;2023-11-21T17:13:16;-18514.00;;;7.41;100.00
28606;BME280;46498;49.968;7.754;2023-11-21T17:18:17;-18512.00;;;7.35;100.00
28606;BME280;46498;49.968;7.754;2023-11-21T17:23:18;-18515.00;;;7.45;100.00
28606;BME280;46498;49.968;7.754;2023-11-21T17:28:19;-18514.00;;;7.41;100.00
28606;BME280;46498;49.968;7.754;2023-11-21T17:33:21;-18513.00;;;7.39;100.00
28606;BME280;46498;49.968;7.754;2023-11-21T17:38:23;-18512.00;;;7.36;100.00
28606;BME280;46498;49.968;7.754;2023-11-21T17:43:24;-18510.00;;;7.28;100.00
28606;BME280;46498;49.968;7.754;2023-11-21T17:48:25;-18508.00;;;7.24;100.00
28606;BME280;46498;49.968;7.754;2023-11-21T17:53:30;-18510.00;;;7.28;100.00
28606;BME280;46498;49.968;7.754;2023-11-21T17:58:31;-18507.00;;;7.21;100.00
28606;BME280;46498;49.968;7.754;2023-11-21T18:03:32;-18508.00;;;7.24;100.00
28606;BME280;46498;49.968;7.754;2023-11-21T18:08:33;-18509.00;;;7.25;100.00
28606;BME280;46498;49.968;7.754;2023-11-21T18:13:35;-18504.00;;;7.12;100.00
28606;BME280;46498;49.968;7.754;2023-11-21T18:18:37;-18501.00;;;7.01;100.00
28606;BME280;46498;49.968;7.754;2023-11-21T18:23:39;-18506.00;;;7.15;100.00
28606;BME280;46498;49.968;7.754;2023-11-21T18:28:40;-18504.00;;;7.12;100.00
28606;BME280;46498;49.968;7.754;2023-11-21T18:33:42;-18504.00;;;7.11;100.00
28606;BME280;46498;49.968;7.754;2023-11-21T18:38:44;-18504.00;;;7.11;100.00
28606;BME280;46498;49.968;7.754;2023-11-21T18:43:45;-18505.00;;;7.14;100.00
28606;BME280;46498;49.968;7.754;2023-11-21T18:48:46;-18506.00;;;7.18;100.00
28606;BME280;46498;49.968;7.754;2023-11-21T18:53:48;-18508.00;;;7.22;100.00
28606;BME280;46498;49.968;7.754;2023-11-21T18:58:50;-18506.00;;;7.17;100.00
28606;BME280;46498;49.968;7.754;2023-11-21T19:03:51;-18505.00;;;7.15;100.00
28606;BME280;46498;49.968;7.754;2023-11-21T19:08:52;-18505.00;;;7.13;100.00
28606;BME280;46498;49.968;7.754;2023-11-21T19:13:54;-18507.00;;;7.21;100.00
28606;BME280;46498;49.968;7.754;2023-11-21T19:18:55;-18508.00;;;7.24;100.00
28606;BME280;46498;49.968;7.754;2023-11-21T19:23:56;-18505.00;;;7.13;100.00
28606;BME280;46498;49.968;7.754;2023-11-21T19:28:57;-18502.00;;;7.04;100.00
28606;BME280;46498;49.968;7.754;2023-11-21T19:33:58;-18504.00;;;7.10;100.00
28606;BME280;46498;49.968;7.754;2023-11-21T19:38:59;-18505.00;;;7.13;100.00
28606;BME280;46498;49.968;7.754;2023-11-21T19:44:00;-18506.00;;;7.16;100.00
28606;BME280;46498;49.968;7.754;2023-11-21T19:49:02;-18502.00;;;7.04;100.00
28606;BME280;46498;49.968;7.754;2023-11-21T19:54:03;-18505.00;;;7.12;100.00
28606;BME280;46498;49.968;7.754;2023-11-21T19:59:07;-18502.00;;;7.03;100.00
28606;BME280;46498;49.968;7.754;2023-11-21T20:04:09;-18503.00;;;7.07;100.00
28606;BME280;46498;49.968;7.754;2023-11-21T20:09:11;-18501.00;;;6.99;100.00
28606;BME280;46498;49.968;7.754;2023-11-21T20:14:12;-18507.00;;;7.19;100.00
28606;BME280;46498;49.968;7.754;2023-11-21T20:19:13;-18503.00;;;7.08;100.00
28606;BME280;46498;49.968;7.754;2023-11-21T20:24:14;-18504.00;;;7.12;100.00
28606;BME280;46498;49.968;7.754;2023-11-21T20:29:14;-18502.00;;;7.03;100.00
28606;BME280;46498;49.968;7.754;2023-11-21T20:34:17;-18502.00;;;7.04;100.00
28606;BME280;46498;49.968;7.754;2023-11-21T20:39:20;-18490.00;;;6.65;100.00
28606;BME280;46498;49.968;7.754;2023-11-21T20:44:21;-18481.00;;;6.38;100.00
28606;BME280;46498;49.968;7.754;2023-11-21T20:49:22;-18476.00;;;6.22;100.00
28606;BME280;46498;49.968;7.754;2023-11-21T20:54:28;-18475.00;;;6.18;100.00
28606;BME280;46498;49.968;7.754;2023-11-21T20:59:28;-18474.00;;;6.17;100.00
28606;BME280;46498;49.968;7.754;2023-11-21T21:04:29;-18461.00;;;5.75;100.00
28606;BME280;46498;49.968;7.754;2023-11-21T21:09:31;-18462.00;;;5.78;100.00
28606;BME280;46498;49.968;7.754;2023-11-21T21:14:33;-18455.00;;;5.58;100.00
28606;BME280;46498;49.968;7.754;2023-11-21T21:19:34;-18450.00;;;5.42;100.00
28606;BME280;46498;49.968;7.754;2023-11-21T21:24:35;-18446.00;;;5.28;100.00
28606;BME280;46498;49.968;7.754;2023-11-21T21:29:36;-18436.00;;;4.96;100.00
28606;BME280;46498;49.968;7.754;2023-11-21T21:34:36;-18429.00;;;4.75;100.00
28606;BME280;46498;49.968;7.754;2023-11-21T21:39:39;-18417.00;;;4.38;100.00
28606;BME280;46498;49.968;7.754;2023-11-21T21:44:40;-18414.00;;;4.29;100.00
28606;BME280;46498;49.968;7.754;2023-11-21T21:49:41;-18418.00;;;4.41;100.00
28606;BME280;46498;49.968;7.754;2023-11-21T21:54:42;-18410.00;;;4.16;100.00
28606;BME280;46498;49.968;7.754;2023-11-21T21:59:43;-18410.00;;;4.14;100.00
28606;BME280;46498;49.968;7.754;2023-11-21T22:04:44;-18412.00;;;4.20;100.00
28606;BME280;46498;49.968;7.754;2023-11-21T22:09:45;-18413.00;;;4.24;100.00
28606;BME280;46498;49.968;7.754;2023-11-21T22:14:46;-18410.00;;;4.16;100.00
28606;BME280;46498;49.968;7.754;2023-11-21T22:19:47;-18407.00;;;4.08;100.00
28606;BME280;46498;49.968;7.754;2023-11-21T22:24:48;-18405.00;;;3.98;100.00
28606;BME280;46498;49.968;7.754;2023-11-21T22:29:49;-18404.00;;;3.97;100.00
28606;BME280;46498;49.968;7.754;2023-11-21T22:34:50;-18399.00;;;3.82;100.00
28606;BME280;46498;49.968;7.754;2023-11-21T22:39:51;-18401.00;;;3.87;100.00
28606;BME280;46498;49.968;7.754;2023-11-21T22:44:52;-18398.00;;;3.78;100.00
28606;BME280;46498;49.968;7.754;2023-11-21T22:49:53;-18407.00;;;4.07;100.00
28606;BME280;46498;49.968;7.754;2023-11-21T22:54:54;-18405.00;;;3.99;100.00
28606;BME280;46498;49.968;7.754;2023-11-21T22:59:55;-18405.00;;;3.98;100.00
28606;BME280;46498;49.968;7.754;2023-11-21T23:04:56;-18411.00;;;4.19;100.00
28606;BME280;46498;49.968;7.754;2023-11-21T23:09:57;-18410.00;;;4.16;100.00
28606;BME280;46498;49.968;7.754;2023-11-21T23:14:58;-18414.00;;;4.28;100.00
28606;BME280;46498;49.968;7.754;2023-11-21T23:19:59;-18414.00;;;4.27;100.00
28606;BME280;46498;49.968;7.754;2023-11-21T23:25:00;-18410.00;;;4.17;100.00
28606;BME280;46498;49.968;7.754;2023-11-21T23:30:02;-18413.00;;;4.24;100.00
28606;BME280;46498;49.968;7.754;2023-11-21T23:35:04;-18409.00;;;4.12;100.00
28606;BME280;46498;49.968;7.754;2023-11-21T23:40:06;-18401.00;;;3.87;100.00
28606;BME280;46498;49.968;7.754;2023-11-21T23:45:08;-18396.00;;;3.73;100.00
28606;BME280;46498;49.968;7.754;2023-11-21T23:50:09;-18395.00;;;3.67;100.00
28606;BME280;46498;49.968;7.754;2023-11-21T23:55:10;-18393.00;;;3.63;100.00
